createdAt,value
2023-04-26T00:02:18.944Z,101395.09
2023-04-26T00:04:48.253Z,101395.09
2023-04-26T00:07:19.675Z,101386.34
2023-04-26T00:10:04.987Z,101392.50
2023-04-26T00:12:34.011Z,101384.59
2023-04-26T00:15:02.506Z,101382.84
2023-04-26T00:17:30.626Z,101380.25
2023-04-26T00:19:58.621Z,101370.66
2023-04-26T00:22:27.515Z,101365.38
2023-04-26T00:24:55.371Z,101367.16
2023-04-26T00:27:22.850Z,101369.78
2023-04-26T00:29:52.718Z,101357.50
2023-04-26T00:32:20.233Z,101360.16
2023-04-26T00:34:48.736Z,101356.69
2023-04-26T00:37:19.412Z,101356.69
2023-04-26T00:39:47.601Z,101359.34
2023-04-26T00:42:17.949Z,101356.75
2023-04-26T00:44:58.302Z,101355.00
2023-04-26T00:47:34.310Z,101357.69
2023-04-26T00:50:05.627Z,101352.44
2023-04-26T00:52:33.857Z,101362.09
2023-04-26T00:55:01.913Z,101350.72
2023-04-26T00:57:29.649Z,101347.28
2023-04-26T00:59:57.404Z,101352.59
2023-04-26T01:02:25.086Z,101351.72
2023-04-26T01:04:52.826Z,101348.22
2023-04-26T01:07:20.505Z,101350.00
2023-04-26T01:09:49.419Z,101354.44
2023-04-26T01:12:18.859Z,101346.59
2023-04-26T01:14:47.034Z,101350.13
2023-04-26T01:17:20.434Z,101351.88
2023-04-26T01:19:51.239Z,101351.88
2023-04-26T01:22:18.784Z,101339.66
2023-04-26T01:24:47.196Z,101343.25
2023-04-26T01:27:14.528Z,101343.22
2023-04-26T01:29:41.643Z,101347.63
2023-04-26T01:32:08.675Z,101347.72
2023-04-26T01:34:35.787Z,101345.09
2023-04-26T01:37:02.738Z,101336.28
2023-04-26T01:39:29.902Z,101341.56
2023-04-26T01:41:58.751Z,101339.88
2023-04-26T01:44:26.002Z,101339.03
2023-04-26T01:46:52.984Z,101335.47
2023-04-26T01:49:20.035Z,101330.22
2023-04-26T01:51:47.350Z,101325.84
2023-04-26T01:54:14.394Z,101322.34
2023-04-26T01:56:41.571Z,101334.56
2023-04-26T01:59:08.648Z,101331.13
2023-04-26T02:01:35.590Z,101329.34
2023-04-26T02:04:02.733Z,101327.56
2023-04-26T02:06:29.660Z,101338.94
2023-04-26T02:08:57.304Z,101331.91
2023-04-26T02:11:24.931Z,101337.19
2023-04-26T02:13:51.997Z,101333.66
2023-04-26T02:16:22.008Z,101330.19
2023-04-26T02:18:54.357Z,101327.56
2023-04-26T02:21:22.703Z,101332.81
2023-04-26T02:23:50.343Z,101331.03
2023-04-26T02:26:17.497Z,101333.63
2023-04-26T02:28:44.801Z,101327.53
2023-04-26T02:31:14.248Z,101338.94
2023-04-26T02:33:41.844Z,101343.34
2023-04-26T02:36:09.870Z,101341.53
2023-04-26T02:38:37.768Z,101329.28
2023-04-26T02:41:05.870Z,101327.53
2023-04-26T02:43:34.588Z,101329.28
2023-04-26T02:46:02.825Z,101330.13
2023-04-26T02:48:31.779Z,101322.28
2023-04-26T02:50:59.161Z,101322.25
2023-04-26T02:53:26.487Z,101317.09
2023-04-26T02:55:55.956Z,101317.97
2023-04-26T02:58:23.590Z,101303.03
2023-04-26T03:00:52.139Z,101310.13
2023-04-26T03:03:20.638Z,101306.53
2023-04-26T03:05:51.384Z,101310.88
2023-04-26T03:08:19.218Z,101310.06
2023-04-26T03:10:47.113Z,101313.53
2023-04-26T03:13:14.271Z,101310.88
2023-04-26T03:15:44.693Z,101308.22
2023-04-26T03:18:11.781Z,101294.16
2023-04-26T03:20:39.937Z,101302.94
2023-04-26T03:23:07.755Z,101298.56
2023-04-26T03:25:34.792Z,101297.69
2023-04-26T03:28:01.825Z,101297.72
2023-04-26T03:30:28.991Z,101295.06
2023-04-26T03:32:56.255Z,101293.28
2023-04-26T03:35:23.256Z,101291.56
2023-04-26T03:37:52.448Z,101285.41
2023-04-26T03:40:20.620Z,101294.22
2023-04-26T03:42:47.827Z,101288.94
2023-04-26T03:45:15.643Z,101287.16
2023-04-26T03:47:42.775Z,101283.63
2023-04-26T03:50:10.054Z,101293.28
2023-04-26T03:52:37.042Z,101287.16
2023-04-26T03:55:05.347Z,101279.25
2023-04-26T03:57:32.411Z,101288.94
2023-04-26T04:00:00.630Z,101280.22
2023-04-26T04:02:28.081Z,101284.53
2023-04-26T04:04:55.799Z,101291.59
2023-04-26T04:07:23.376Z,101279.28
2023-04-26T04:09:50.433Z,101288.09
2023-04-26T04:12:24.079Z,101285.44
2023-04-26T04:14:52.754Z,101288.94
2023-04-26T04:17:20.045Z,101294.22
2023-04-26T04:19:47.225Z,101291.59
2023-04-26T04:22:14.180Z,101294.22
2023-04-26T04:24:42.680Z,101289.84
2023-04-26T04:27:10.930Z,101292.47
2023-04-26T04:29:41.238Z,101293.34
2023-04-26T04:32:10.598Z,101288.97
2023-04-26T04:34:41.555Z,101296.88
2023-04-26T04:37:16.785Z,101295.09
2023-04-26T04:39:48.613Z,101296.88
2023-04-26T04:42:20.232Z,101303.00
2023-04-26T04:44:48.165Z,101298.63
2023-04-26T04:47:15.531Z,101299.50
2023-04-26T04:49:43.609Z,101296.88
2023-04-26T04:52:11.198Z,101298.72
2023-04-26T04:54:38.613Z,101299.56
2023-04-26T04:57:06.427Z,101302.19
2023-04-26T04:59:33.672Z,101296.03
2023-04-26T05:02:01.789Z,101299.53
2023-04-26T05:04:29.374Z,101292.53
2023-04-26T05:07:00.393Z,101302.25
2023-04-26T05:09:27.713Z,101294.34
2023-04-26T05:11:55.398Z,101293.41
2023-04-26T05:14:25.074Z,101296.00
2023-04-26T05:16:52.158Z,101297.78
2023-04-26T05:19:19.627Z,101303.91
2023-04-26T05:21:47.671Z,101296.91
2023-04-26T05:24:15.134Z,101303.97
2023-04-26T05:26:42.191Z,101311.88
2023-04-26T05:29:42.535Z,101324.13
2023-04-26T05:32:25.271Z,101327.69
2023-04-26T05:35:13.612Z,101327.75
2023-04-26T05:37:40.756Z,101333.00
2023-04-26T05:40:09.093Z,101338.31
2023-04-26T05:42:37.391Z,101331.28
2023-04-26T05:45:05.542Z,101342.72
2023-04-26T05:47:33.282Z,101336.53
2023-04-26T05:50:00.313Z,101340.84
2023-04-26T05:52:27.303Z,101346.97
2023-04-26T05:54:54.540Z,101344.34
2023-04-26T05:57:21.803Z,101347.88
2023-04-26T05:59:49.029Z,101343.47
2023-04-26T06:02:17.136Z,101341.75
2023-04-26T06:04:44.928Z,101347.03
2023-04-26T06:07:17.783Z,101348.88
2023-04-26T06:09:47.159Z,101353.19
2023-04-26T06:12:15.044Z,101353.19
2023-04-26T06:14:44.597Z,101349.66
2023-04-26T06:17:16.371Z,101349.69
2023-04-26T06:19:43.484Z,101350.56
2023-04-26T06:22:10.461Z,101355.81
2023-04-26T06:24:37.523Z,101356.75
2023-04-26T06:27:04.606Z,101355.06
2023-04-26T06:29:33.166Z,101358.56
2023-04-26T06:32:00.855Z,101355.97
2023-04-26T06:34:28.226Z,101361.28
2023-04-26T06:36:55.572Z,101363.94
2023-04-26T06:39:24.941Z,101364.91
2023-04-26T06:41:52.638Z,101366.69
2023-04-26T06:44:27.883Z,101364.06
2023-04-26T06:47:01.837Z,101374.63
2023-04-26T06:49:28.956Z,101368.47
2023-04-26T06:51:56.206Z,101372.88
2023-04-26T06:54:27.718Z,101379.03
2023-04-26T06:56:54.776Z,101374.66
2023-04-26T06:59:21.767Z,101374.75
2023-04-26T07:01:49.115Z,101374.75
2023-04-26T07:04:18.956Z,101373.00
2023-04-26T07:06:48.793Z,101374.78
2023-04-26T07:09:15.971Z,101375.63
2023-04-26T07:11:42.997Z,101366.06
2023-04-26T07:14:12.085Z,101363.47
2023-04-26T07:16:39.125Z,101362.59
2023-04-26T07:19:09.183Z,101368.75
2023-04-26T07:21:36.733Z,101371.44
2023-04-26T07:24:04.071Z,101370.59
2023-04-26T07:26:31.688Z,101374.16
2023-04-26T07:29:00.166Z,101375.06
2023-04-26T07:31:27.283Z,101382.03
2023-04-26T07:33:54.490Z,101388.22
2023-04-26T07:36:23.053Z,101383.88
2023-04-26T07:38:52.010Z,101387.44
2023-04-26T07:41:19.284Z,101386.63
2023-04-26T07:43:46.277Z,101383.13
2023-04-26T07:46:13.262Z,101393.75
2023-04-26T07:48:40.697Z,101399.00
2023-04-26T07:51:11.615Z,101402.56
2023-04-26T07:53:39.329Z,101396.44
2023-04-26T07:56:08.249Z,101405.25
2023-04-26T07:58:36.302Z,101395.66
2023-04-26T08:01:04.369Z,101398.44
2023-04-26T08:03:31.784Z,101387.94
2023-04-26T08:05:59.810Z,101394.09
2023-04-26T08:08:29.832Z,101394.97
2023-04-26T08:10:56.989Z,101382.75
2023-04-26T08:13:24.467Z,101385.44
2023-04-26T08:15:52.781Z,101377.59
2023-04-26T08:18:19.769Z,101382.91
2023-04-26T08:20:46.976Z,101371.47
2023-04-26T08:23:14.796Z,101366.22
2023-04-26T08:25:47.291Z,101357.47
2023-04-26T08:28:15.023Z,101362.72
2023-04-26T08:30:42.731Z,101353.94
2023-04-26T08:33:10.335Z,101360.13
2023-04-26T08:35:37.694Z,101354.84
2023-04-26T08:38:04.994Z,101361.00
2023-04-26T08:40:33.216Z,101363.66
2023-04-26T08:43:00.309Z,101371.56
2023-04-26T08:45:27.324Z,101377.72
2023-04-26T08:47:57.261Z,101367.13
2023-04-26T08:50:24.823Z,101366.25
2023-04-26T08:52:52.345Z,101374.22
2023-04-26T08:55:20.408Z,101381.28
2023-04-26T08:57:48.253Z,101383.91
2023-04-26T09:00:16.457Z,101386.63
2023-04-26T09:02:46.893Z,101385.75
2023-04-26T09:05:14.347Z,101384.84
2023-04-26T09:07:43.610Z,101389.25
2023-04-26T09:10:12.837Z,101399.81
2023-04-26T09:12:40.414Z,101403.38
2023-04-26T09:15:07.824Z,101398.09
2023-04-26T09:17:39.947Z,101395.44
2023-04-26T09:20:26.278Z,101411.28
2023-04-26T09:22:54.385Z,101396.31
2023-04-26T09:25:28.866Z,101398.09
2023-04-26T09:27:56.267Z,101399.00
2023-04-26T09:30:23.338Z,101398.09
2023-04-26T09:32:52.044Z,101391.03
2023-04-26T09:35:21.906Z,101386.59
2023-04-26T09:37:59.262Z,101394.50
2023-04-26T09:40:31.807Z,101377.72
2023-04-26T09:43:00.335Z,101380.38
2023-04-26T09:45:27.975Z,101377.72
2023-04-26T09:47:55.948Z,101379.44
2023-04-26T09:50:29.889Z,101378.47
2023-04-26T09:52:57.038Z,101377.47
2023-04-26T09:55:35.201Z,101371.25
2023-04-26T09:58:10.207Z,101378.31
2023-04-26T10:00:38.510Z,101373.88
2023-04-26T10:03:07.652Z,101375.75
2023-04-26T10:05:34.884Z,101374.88
2023-04-26T10:08:04.018Z,101358.94
2023-04-26T10:10:32.080Z,101357.03
2023-04-26T10:12:59.286Z,101355.13
2023-04-26T10:15:26.584Z,101366.47
2023-04-26T10:17:53.646Z,101359.44
2023-04-26T10:20:21.561Z,101353.16
2023-04-26T10:22:53.162Z,101352.31
2023-04-26T10:25:20.217Z,101339.91
2023-04-26T10:27:51.087Z,101338.88
2023-04-26T10:30:19.537Z,101349.41
2023-04-26T10:32:53.390Z,101357.38
2023-04-26T10:35:22.075Z,101345.03
2023-04-26T10:38:04.480Z,101350.28
2023-04-26T10:40:39.119Z,101348.44
2023-04-26T10:43:09.148Z,101353.75
2023-04-26T10:45:36.646Z,101352.06
2023-04-26T10:48:20.037Z,101366.28
2023-04-26T10:50:59.615Z,101357.75
2023-04-26T10:53:26.623Z,101371.00
2023-04-26T10:55:53.703Z,101371.09
2023-04-26T10:58:31.332Z,101375.50
2023-04-26T11:01:05.433Z,101384.47
2023-04-26T11:03:32.757Z,101381.84
2023-04-26T11:06:00.173Z,101381.00
2023-04-26T11:08:28.669Z,101373.97
2023-04-26T11:11:00.044Z,101365.94
2023-04-26T11:13:27.074Z,101367.72
2023-04-26T11:15:55.051Z,101364.22
2023-04-26T11:18:22.536Z,101366.03
2023-04-26T11:20:49.676Z,101370.41
2023-04-26T11:23:18.467Z,101356.34
2023-04-26T11:25:45.599Z,101365.13
2023-04-26T11:28:12.626Z,101373.06
2023-04-26T11:30:39.630Z,101370.41
2023-04-26T11:33:06.765Z,101357.16
2023-04-26T11:35:36.726Z,101361.66
2023-04-26T11:38:06.828Z,101366.94
2023-04-26T11:40:34.254Z,101371.41
2023-04-26T11:43:05.442Z,101367.88
2023-04-26T11:45:33.501Z,101374.94
2023-04-26T11:48:01.474Z,101374.06
2023-04-26T11:50:28.652Z,101371.41
2023-04-26T11:52:56.675Z,101374.94
2023-04-26T11:55:32.102Z,101372.28
2023-04-26T11:58:09.609Z,101371.34
2023-04-26T12:00:36.619Z,101365.94
2023-04-26T12:03:11.354Z,101361.53
2023-04-26T12:05:38.841Z,101356.19
2023-04-26T12:08:06.070Z,101354.47
2023-04-26T12:10:36.081Z,101354.47
2023-04-26T12:13:03.254Z,101354.38
2023-04-26T12:15:35.344Z,101356.88
2023-04-26T12:18:11.872Z,101349.81
2023-04-26T12:20:42.532Z,101350.66
2023-04-26T12:23:12.203Z,101354.16
2023-04-26T12:25:41.520Z,101360.34
2023-04-26T12:28:14.202Z,101356.88
2023-04-26T12:30:41.872Z,101351.50
2023-04-26T12:33:16.651Z,101361.28
2023-04-26T12:35:45.461Z,101359.63
2023-04-26T12:38:13.953Z,101370.22
2023-04-26T12:40:42.960Z,101363.22
2023-04-26T12:43:10.246Z,101357.94
2023-04-26T12:45:37.465Z,101357.94
2023-04-26T12:48:04.726Z,101365.06
2023-04-26T12:50:31.849Z,101350.97
2023-04-26T12:52:59.084Z,101365.13
2023-04-26T12:55:27.204Z,101367.75
2023-04-26T12:57:56.132Z,101373.94
2023-04-26T13:00:23.670Z,101368.63
2023-04-26T13:02:52.311Z,101379.22
2023-04-26T13:05:20.468Z,101381.88
2023-04-26T13:07:59.341Z,101374.78
2023-04-26T13:10:37.816Z,101372.06
2023-04-26T13:13:09.238Z,101375.59
2023-04-26T13:16:05.503Z,101372.94
2023-04-26T13:18:33.030Z,101361.50
2023-04-26T13:21:00.112Z,101358.00
2023-04-26T13:23:27.200Z,101359.75
2023-04-26T13:25:54.240Z,101367.66
2023-04-26T13:28:21.772Z,101367.66
2023-04-26T13:30:48.865Z,101370.28
2023-04-26T13:33:16.090Z,101368.47
2023-04-26T13:35:43.608Z,101365.00
2023-04-26T13:38:12.294Z,101375.63
2023-04-26T13:40:39.632Z,101373.00
2023-04-26T13:43:06.660Z,101367.69
2023-04-26T13:45:35.484Z,101376.47
2023-04-26T13:48:03.610Z,101370.28
2023-04-26T13:50:47.992Z,101381.69
2023-04-26T13:53:15.213Z,101379.84
2023-04-26T13:55:42.304Z,101379.03
2023-04-26T13:58:09.455Z,101366.66
2023-04-26T14:00:37.209Z,101375.50
2023-04-26T14:03:04.476Z,101368.41
2023-04-26T14:05:31.913Z,101358.72
2023-04-26T14:07:59.306Z,101362.31
2023-04-26T14:10:26.574Z,101359.75
2023-04-26T14:12:55.056Z,101358.88
2023-04-26T14:15:23.625Z,101365.00
2023-04-26T14:17:57.400Z,101365.88
2023-04-26T14:20:24.504Z,101351.81
2023-04-26T14:22:52.640Z,101359.69
2023-04-26T14:25:20.249Z,101354.41
2023-04-26T14:27:47.423Z,101353.44
2023-04-26T14:30:14.957Z,101349.91
2023-04-26T14:32:45.299Z,101356.97
2023-04-26T14:35:16.335Z,101357.75
2023-04-26T14:37:43.683Z,101355.13
2023-04-26T14:40:11.746Z,101358.66
2023-04-26T14:42:45.218Z,101359.53
2023-04-26T14:45:15.962Z,101363.97
2023-04-26T14:47:47.536Z,101357.88
2023-04-26T14:50:16.186Z,101381.69
2023-04-26T14:52:51.306Z,101371.16
2023-04-26T14:55:24.456Z,101370.28
2023-04-26T14:58:17.707Z,101380.00
2023-04-26T15:00:45.951Z,101384.44
2023-04-26T15:03:13.167Z,101377.41
2023-04-26T15:05:40.549Z,101375.63
2023-04-26T15:08:07.521Z,101377.41
2023-04-26T15:10:34.669Z,101381.84
2023-04-26T15:13:10.401Z,101376.53
2023-04-26T15:15:39.128Z,101378.41
2023-04-26T15:18:06.872Z,101383.69
2023-04-26T15:20:46.920Z,101374.88
2023-04-26T15:23:17.451Z,101379.28
2023-04-26T15:25:45.035Z,101376.63
2023-04-26T15:28:12.163Z,101377.53
2023-04-26T15:30:43.052Z,101380.28
2023-04-26T15:33:12.872Z,101375.03
2023-04-26T15:35:40.154Z,101368.84
2023-04-26T15:38:07.326Z,101372.44
2023-04-26T15:40:38.482Z,101365.41
2023-04-26T15:43:06.400Z,101366.34
2023-04-26T15:45:36.524Z,101369.81
2023-04-26T15:48:04.410Z,101367.22
2023-04-26T15:50:31.949Z,101360.13
2023-04-26T15:53:03.692Z,101357.47
2023-04-26T15:55:34.312Z,101357.53
2023-04-26T15:58:08.460Z,101352.22
2023-04-26T16:00:36.692Z,101354.03
2023-04-26T16:03:03.910Z,101359.28
2023-04-26T16:05:32.460Z,101358.44
2023-04-26T16:08:03.886Z,101348.72
2023-04-26T16:10:35.877Z,101345.22
2023-04-26T16:13:09.454Z,101346.94
2023-04-26T16:15:54.354Z,101351.34
2023-04-26T16:18:31.713Z,101354.03
2023-04-26T16:21:08.193Z,101354.03
2023-04-26T16:23:39.260Z,101359.28
2023-04-26T16:26:12.243Z,101359.31
2023-04-26T16:28:45.805Z,101360.16
2023-04-26T16:31:12.962Z,101365.47
2023-04-26T16:33:40.016Z,101361.03
2023-04-26T16:36:07.423Z,101360.16
2023-04-26T16:38:44.656Z,101373.41
2023-04-26T16:41:12.455Z,101377.81
2023-04-26T16:43:39.591Z,101381.31
2023-04-26T16:46:08.324Z,101380.44
2023-04-26T16:48:36.405Z,101381.34
2023-04-26T16:51:08.093Z,101384.84
2023-04-26T16:53:45.181Z,101392.78
2023-04-26T16:56:22.405Z,101383.97
2023-04-26T16:59:01.586Z,101385.72
2023-04-26T17:05:35.731Z,101384.84
2023-04-26T17:08:30.567Z,101381.34
2023-04-26T17:19:27.654Z,101379.53
2023-04-26T17:21:56.751Z,101377.78
2023-04-26T17:24:46.348Z,101379.56
2023-04-26T17:27:14.193Z,101375.16
2023-04-26T17:29:41.951Z,101369.00
2023-04-26T17:32:10.312Z,101368.13
2023-04-26T17:34:49.556Z,101368.13
2023-04-26T17:37:18.046Z,101369.03
2023-04-26T17:39:45.209Z,101370.78
2023-04-26T17:42:21.784Z,101369.00
2023-04-26T17:44:57.997Z,101386.63
2023-04-26T17:47:29.854Z,101376.97
2023-04-26T17:49:58.149Z,101383.13
2023-04-26T17:52:26.220Z,101372.53
2023-04-26T17:54:54.719Z,101372.53
2023-04-26T17:57:24.186Z,101370.81
2023-04-26T17:59:52.240Z,101367.28
2023-04-26T18:02:19.720Z,101366.41
2023-04-26T18:04:49.432Z,101366.41
2023-04-26T18:07:17.106Z,101367.28
2023-04-26T18:09:44.243Z,101373.44
2023-04-26T18:12:11.282Z,101378.72
2023-04-26T18:14:44.910Z,101373.44
2023-04-26T18:17:13.531Z,101379.59
2023-04-26T18:19:41.558Z,101366.41
2023-04-26T18:22:09.077Z,101370.78
2023-04-26T18:24:39.139Z,101377.84
2023-04-26T18:27:06.770Z,101386.63
2023-04-26T18:29:33.814Z,101390.16
2023-04-26T18:32:01.319Z,101401.56
2023-04-26T18:34:29.596Z,101396.28
2023-04-26T18:36:57.354Z,101405.09
2023-04-26T18:39:24.354Z,101398.94
2023-04-26T18:41:53.791Z,101398.94
2023-04-26T18:44:21.025Z,101402.44
2023-04-26T18:46:48.232Z,101396.28
2023-04-26T18:49:15.498Z,101406.78
2023-04-26T18:51:47.279Z,101393.59
2023-04-26T18:54:15.526Z,101405.00
2023-04-26T18:56:44.260Z,101401.47
2023-04-26T18:59:21.879Z,101405.00
2023-04-26T19:01:49.554Z,101401.47
2023-04-26T19:04:25.715Z,101404.09
2023-04-26T19:07:26.693Z,101404.09
2023-04-26T19:10:04.692Z,101399.66
2023-04-26T19:12:32.181Z,101403.16
2023-04-26T19:14:59.716Z,101409.28
2023-04-26T19:17:27.057Z,101412.78
2023-04-26T19:19:56.331Z,101416.31
2023-04-26T19:22:24.583Z,101425.97
2023-04-26T19:24:52.333Z,101424.19
2023-04-26T19:27:19.781Z,101429.44
2023-04-26T19:29:46.862Z,101436.47
2023-04-26T19:32:14.636Z,101437.34
2023-04-26T19:34:43.113Z,101432.06
2023-04-26T19:37:13.699Z,101429.41
2023-04-26T19:39:44.392Z,101427.63
2023-04-26T19:42:11.445Z,101422.34
2023-04-26T19:44:39.944Z,101438.97
2023-04-26T19:47:07.287Z,101450.41
2023-04-26T19:49:34.750Z,101451.22
2023-04-26T19:52:02.033Z,101450.34
2023-04-26T19:54:29.208Z,101446.78
2023-04-26T19:56:56.315Z,101456.41
2023-04-26T19:59:24.161Z,101459.03
2023-04-26T20:01:53.867Z,101456.34
2023-04-26T20:04:26.015Z,101457.19
2023-04-26T20:06:53.465Z,101461.59
2023-04-26T20:09:23.476Z,101466.84
2023-04-26T20:11:50.831Z,101466.81
2023-04-26T20:14:27.197Z,101474.72
2023-04-26T20:16:55.003Z,101471.19
2023-04-26T20:19:22.308Z,101479.06
2023-04-26T20:21:49.339Z,101484.28
2023-04-26T20:24:16.655Z,101488.69
2023-04-26T20:26:44.156Z,101500.91
2023-04-26T20:29:11.094Z,101487.75
2023-04-26T20:31:38.248Z,101500.00
2023-04-26T20:34:08.838Z,101493.84
2023-04-26T20:36:36.538Z,101491.22
2023-04-26T20:39:04.443Z,101491.22
2023-04-26T20:41:32.021Z,101492.00
2023-04-26T20:43:59.253Z,101488.47
2023-04-26T20:46:27.205Z,101490.19
2023-04-26T20:48:54.361Z,101497.19
2023-04-26T20:51:22.502Z,101498.03
2023-04-26T20:53:49.422Z,101498.03
2023-04-26T20:56:16.455Z,101495.38
2023-04-26T20:58:43.982Z,101491.00
2023-04-26T21:01:13.859Z,101483.97
2023-04-26T21:03:41.124Z,101484.84
2023-04-26T21:06:08.069Z,101477.75
2023-04-26T21:08:36.763Z,101490.00
2023-04-26T21:11:04.138Z,101494.31
2023-04-26T21:13:31.752Z,101491.63
2023-04-26T21:15:59.120Z,101487.16
2023-04-26T21:18:26.415Z,101492.47
2023-04-26T21:20:53.348Z,101485.41
2023-04-26T21:23:20.370Z,101481.84
2023-04-26T21:25:48.266Z,101492.34
2023-04-26T21:28:15.442Z,101489.69
2023-04-26T21:30:42.462Z,101499.28
2023-04-26T21:33:09.853Z,101498.38
2023-04-26T21:35:39.064Z,101491.38
2023-04-26T21:38:06.226Z,101488.63
2023-04-26T21:40:33.377Z,101476.34
2023-04-26T21:43:18.154Z,101474.53
2023-04-26T21:45:53.564Z,101482.28
2023-04-26T21:48:20.892Z,101480.53
2023-04-26T21:50:53.640Z,101480.44
2023-04-26T21:53:20.872Z,101478.53
2023-04-26T21:55:52.803Z,101481.94
2023-04-26T21:58:21.164Z,101476.66
2023-04-26T22:00:48.270Z,101482.59
2023-04-26T22:03:15.547Z,101479.97
2023-04-26T22:05:42.788Z,101477.34
2023-04-26T22:08:09.786Z,101476.44
2023-04-26T22:10:36.950Z,101479.91
2023-04-26T22:13:04.129Z,101481.53
2023-04-26T22:15:31.164Z,101481.50
2023-04-26T22:17:58.313Z,101483.25
2023-04-26T22:20:26.256Z,101485.88
2023-04-26T22:22:54.680Z,101483.13
2023-04-26T22:25:22.023Z,101492.72
2023-04-26T22:27:49.036Z,101487.41
2023-04-26T22:30:25.301Z,101487.31
2023-04-26T22:32:58.057Z,101485.44
2023-04-26T22:35:26.580Z,101493.19
2023-04-26T22:37:54.193Z,101487.84
2023-04-26T22:40:21.455Z,101490.34
2023-04-26T22:42:48.875Z,101482.31
2023-04-26T22:45:19.884Z,101483.22
2023-04-26T22:47:50.670Z,101485.88
2023-04-26T22:50:18.652Z,101486.78
2023-04-26T22:52:52.697Z,101494.66
2023-04-26T22:55:21.425Z,101484.09
2023-04-26T22:57:55.974Z,101490.22
2023-04-26T23:00:27.318Z,101484.84
2023-04-26T23:02:55.415Z,101473.28
2023-04-26T23:05:22.637Z,101483.81
2023-04-26T23:07:49.759Z,101479.47
2023-04-26T23:10:16.915Z,101483.72
2023-04-26T23:12:43.891Z,101481.97
2023-04-26T23:15:11.813Z,101482.81
2023-04-26T23:17:39.118Z,101488.03
2023-04-26T23:20:12.725Z,101475.63
2023-04-26T23:22:42.725Z,101474.69
2023-04-26T23:25:10.182Z,101482.41
2023-04-26T23:27:37.717Z,101487.66
2023-04-26T23:30:05.271Z,101495.50
2023-04-26T23:32:32.302Z,101500.66
2023-04-26T23:34:59.329Z,101493.63
2023-04-26T23:37:26.353Z,101492.91
2023-04-26T23:39:53.223Z,101499.78
2023-04-26T23:42:20.268Z,101496.31
2023-04-26T23:44:47.239Z,101501.44
2023-04-26T23:47:14.289Z,101514.56
2023-04-26T23:49:41.530Z,101518.13
2023-04-26T23:52:08.458Z,101512.91
2023-04-26T23:54:35.562Z,101522.56
2023-04-26T23:57:04.309Z,101520.00
2023-04-26T23:59:31.251Z,101524.38
